sensor_id;sensor_type;location;lat;lon;timestamp;P1;durP1;ratioP1;P2;durP2;ratioP2
66020;SDS011;52789;59.980;30.346;2022-09-17T00:02:22;3.10;;;2.80;;
66020;SDS011;52789;59.980;30.346;2022-09-17T00:04:49;4.57;;;2.87;;
66020;SDS011;52789;59.980;30.346;2022-09-17T00:07:16;4.90;;;3.50;;
66020;SDS011;52789;59.980;30.346;2022-09-17T00:09:42;5.80;;;3.37;;
66020;SDS011;52789;59.980;30.346;2022-09-17T00:12:08;3.30;;;3.00;;
66020;SDS011;52789;59.980;30.346;2022-09-17T00:14:34;5.63;;;2.47;;
66020;SDS011;52789;59.980;30.346;2022-09-17T00:17:06;5.77;;;3.30;;
66020;SDS011;52789;59.980;30.346;2022-09-17T00:19:32;4.23;;;2.57;;
66020;SDS011;52789;59.980;30.346;2022-09-17T00:21:57;7.80;;;2.97;;
66020;SDS011;52789;59.980;30.346;2022-09-17T00:24:23;5.10;;;3.03;;
66020;SDS011;52789;59.980;30.346;2022-09-17T00:26:49;4.13;;;2.73;;
66020;SDS011;52789;59.980;30.346;2022-09-17T00:29:15;3.17;;;2.50;;
66020;SDS011;52789;59.980;30.346;2022-09-17T00:31:41;3.00;;;2.27;;
66020;SDS011;52789;59.980;30.346;2022-09-17T00:34:07;3.93;;;3.00;;
66020;SDS011;52789;59.980;30.346;2022-09-17T00:36:33;5.47;;;2.80;;
66020;SDS011;52789;59.980;30.346;2022-09-17T00:39:00;2.80;;;2.23;;
66020;SDS011;52789;59.980;30.346;2022-09-17T00:41:29;5.23;;;2.77;;
66020;SDS011;52789;59.980;30.346;2022-09-17T00:44:00;3.88;;;3.47;;
66020;SDS011;52789;59.980;30.346;2022-09-17T00:46:46;2.87;;;2.47;;
66020;SDS011;52789;59.980;30.346;2022-09-17T00:49:21;4.00;;;3.47;;
66020;SDS011;52789;59.980;30.346;2022-09-17T00:52:14;4.60;;;3.10;;
66020;SDS011;52789;59.980;30.346;2022-09-17T00:54:41;3.60;;;2.67;;
66020;SDS011;52789;59.980;30.346;2022-09-17T00:57:13;3.37;;;2.47;;
66020;SDS011;52789;59.980;30.346;2022-09-17T00:59:40;6.47;;;3.07;;
66020;SDS011;52789;59.980;30.346;2022-09-17T01:02:05;5.23;;;3.00;;
66020;SDS011;52789;59.980;30.346;2022-09-17T01:04:56;3.13;;;2.83;;
66020;SDS011;52789;59.980;30.346;2022-09-17T01:15:50;3.87;;;2.90;;
66020;SDS011;52789;59.980;30.346;2022-09-17T01:31:47;9.03;;;3.50;;
66020;SDS011;52789;59.980;30.346;2022-09-17T01:39:44;4.80;;;3.60;;
66020;SDS011;52789;59.980;30.346;2022-09-17T01:42:19;4.57;;;3.57;;
66020;SDS011;52789;59.980;30.346;2022-09-17T01:45:04;5.17;;;3.53;;
66020;SDS011;52789;59.980;30.346;2022-09-17T01:47:41;4.17;;;3.30;;
66020;SDS011;52789;59.980;30.346;2022-09-17T01:50:17;6.43;;;3.40;;
66020;SDS011;52789;59.980;30.346;2022-09-17T01:52:48;4.37;;;3.23;;
66020;SDS011;52789;59.980;30.346;2022-09-17T01:55:16;3.93;;;3.50;;
66020;SDS011;52789;59.980;30.346;2022-09-17T01:57:46;4.37;;;3.40;;
66020;SDS011;52789;59.980;30.346;2022-09-17T02:00:17;3.77;;;3.37;;
66020;SDS011;52789;59.980;30.346;2022-09-17T02:03:03;4.87;;;3.87;;
66020;SDS011;52789;59.980;30.346;2022-09-17T02:05:36;4.53;;;3.50;;
66020;SDS011;52789;59.980;30.346;2022-09-17T02:08:07;4.87;;;3.47;;
66020;SDS011;52789;59.980;30.346;2022-09-17T02:10:41;4.27;;;3.50;;
66020;SDS011;52789;59.980;30.346;2022-09-17T02:13:13;5.73;;;4.63;;
66020;SDS011;52789;59.980;30.346;2022-09-17T02:16:11;6.20;;;4.97;;
66020;SDS011;52789;59.980;30.346;2022-09-17T02:21:49;7.83;;;5.10;;
66020;SDS011;52789;59.980;30.346;2022-09-17T02:24:23;6.17;;;4.90;;
66020;SDS011;52789;59.980;30.346;2022-09-17T02:27:01;4.70;;;4.25;;
66020;SDS011;52789;59.980;30.346;2022-09-17T02:29:38;5.53;;;4.50;;
66020;SDS011;52789;59.980;30.346;2022-09-17T02:32:06;4.50;;;3.87;;
66020;SDS011;52789;59.980;30.346;2022-09-17T02:34:32;4.43;;;4.00;;
66020;SDS011;52789;59.980;30.346;2022-09-17T02:36:58;5.27;;;3.70;;
66020;SDS011;52789;59.980;30.346;2022-09-17T02:39:25;4.60;;;3.97;;
66020;SDS011;52789;59.980;30.346;2022-09-17T02:44:52;6.83;;;3.57;;
66020;SDS011;52789;59.980;30.346;2022-09-17T02:50:18;7.60;;;3.80;;
66020;SDS011;52789;59.980;30.346;2022-09-17T02:55:40;4.33;;;3.93;;
66020;SDS011;52789;59.980;30.346;2022-09-17T02:58:17;7.10;;;4.10;;
66020;SDS011;52789;59.980;30.346;2022-09-17T03:00:50;7.10;;;3.83;;
66020;SDS011;52789;59.980;30.346;2022-09-17T03:06:01;8.37;;;3.90;;
66020;SDS011;52789;59.980;30.346;2022-09-17T03:08:29;4.10;;;3.70;;
66020;SDS011;52789;59.980;30.346;2022-09-17T03:10:58;4.87;;;3.93;;
66020;SDS011;52789;59.980;30.346;2022-09-17T03:13:23;4.37;;;3.97;;
66020;SDS011;52789;59.980;30.346;2022-09-17T03:15:50;4.43;;;4.03;;
66020;SDS011;52789;59.980;30.346;2022-09-17T03:18:16;6.77;;;4.30;;
66020;SDS011;52789;59.980;30.346;2022-09-17T03:20:41;5.93;;;4.53;;
66020;SDS011;52789;59.980;30.346;2022-09-17T03:23:07;4.40;;;3.90;;
66020;SDS011;52789;59.980;30.346;2022-09-17T03:25:32;4.30;;;3.80;;
66020;SDS011;52789;59.980;30.346;2022-09-17T03:27:58;5.97;;;3.90;;
66020;SDS011;52789;59.980;30.346;2022-09-17T03:30:23;4.27;;;3.77;;
66020;SDS011;52789;59.980;30.346;2022-09-17T03:32:49;4.07;;;3.73;;
66020;SDS011;52789;59.980;30.346;2022-09-17T03:35:14;5.67;;;3.73;;
66020;SDS011;52789;59.980;30.346;2022-09-17T03:37:40;7.13;;;3.50;;
66020;SDS011;52789;59.980;30.346;2022-09-17T03:40:06;6.17;;;3.93;;
66020;SDS011;52789;59.980;30.346;2022-09-17T03:42:32;4.27;;;3.87;;
66020;SDS011;52789;59.980;30.346;2022-09-17T03:44:57;6.20;;;3.40;;
66020;SDS011;52789;59.980;30.346;2022-09-17T03:47:23;5.17;;;3.63;;
66020;SDS011;52789;59.980;30.346;2022-09-17T03:49:48;5.57;;;4.10;;
66020;SDS011;52789;59.980;30.346;2022-09-17T03:52:14;8.07;;;3.53;;
66020;SDS011;52789;59.980;30.346;2022-09-17T03:54:39;4.80;;;2.90;;
66020;SDS011;52789;59.980;30.346;2022-09-17T03:57:05;5.53;;;4.23;;
66020;SDS011;52789;59.980;30.346;2022-09-17T03:59:30;7.83;;;3.47;;
66020;SDS011;52789;59.980;30.346;2022-09-17T04:01:56;3.53;;;3.20;;
66020;SDS011;52789;59.980;30.346;2022-09-17T04:04:21;4.43;;;3.50;;
66020;SDS011;52789;59.980;30.346;2022-09-17T04:06:47;5.87;;;4.17;;
66020;SDS011;52789;59.980;30.346;2022-09-17T04:09:13;6.17;;;4.13;;
66020;SDS011;52789;59.980;30.346;2022-09-17T04:11:38;5.40;;;3.70;;
66020;SDS011;52789;59.980;30.346;2022-09-17T04:14:04;4.40;;;3.80;;
66020;SDS011;52789;59.980;30.346;2022-09-17T04:16:30;8.50;;;3.80;;
66020;SDS011;52789;59.980;30.346;2022-09-17T04:18:55;5.00;;;4.03;;
66020;SDS011;52789;59.980;30.346;2022-09-17T04:21:21;4.17;;;3.20;;
66020;SDS011;52789;59.980;30.346;2022-09-17T04:23:46;4.50;;;4.10;;
66020;SDS011;52789;59.980;30.346;2022-09-17T04:26:12;5.10;;;3.50;;
66020;SDS011;52789;59.980;30.346;2022-09-17T04:28:37;3.90;;;3.60;;
66020;SDS011;52789;59.980;30.346;2022-09-17T04:31:03;5.87;;;3.60;;
66020;SDS011;52789;59.980;30.346;2022-09-17T04:33:28;4.83;;;3.80;;
66020;SDS011;52789;59.980;30.346;2022-09-17T04:35:54;6.50;;;3.40;;
66020;SDS011;52789;59.980;30.346;2022-09-17T04:38:21;4.43;;;3.80;;
66020;SDS011;52789;59.980;30.346;2022-09-17T04:40:47;5.43;;;3.83;;
66020;SDS011;52789;59.980;30.346;2022-09-17T04:43:13;5.43;;;4.07;;
66020;SDS011;52789;59.980;30.346;2022-09-17T04:45:39;5.57;;;3.93;;
66020;SDS011;52789;59.980;30.346;2022-09-17T04:48:04;11.20;;;5.20;;
66020;SDS011;52789;59.980;30.346;2022-09-17T04:50:30;6.37;;;5.73;;
66020;SDS011;52789;59.980;30.346;2022-09-17T04:52:56;3.90;;;3.53;;
66020;SDS011;52789;59.980;30.346;2022-09-17T04:55:21;4.47;;;3.77;;
66020;SDS011;52789;59.980;30.346;2022-09-17T04:57:51;5.27;;;3.80;;
66020;SDS011;52789;59.980;30.346;2022-09-17T05:00:18;4.33;;;3.10;;
66020;SDS011;52789;59.980;30.346;2022-09-17T05:02:46;6.17;;;3.50;;
66020;SDS011;52789;59.980;30.346;2022-09-17T05:05:13;3.88;;;3.38;;
66020;SDS011;52789;59.980;30.346;2022-09-17T05:07:46;4.23;;;3.40;;
66020;SDS011;52789;59.980;30.346;2022-09-17T05:10:12;3.10;;;2.67;;
66020;SDS011;52789;59.980;30.346;2022-09-17T05:12:40;5.30;;;3.38;;
66020;SDS011;52789;59.980;30.346;2022-09-17T05:15:05;5.90;;;3.20;;
66020;SDS011;52789;59.980;30.346;2022-09-17T05:17:32;5.40;;;3.13;;
66020;SDS011;52789;59.980;30.346;2022-09-17T05:19:58;5.30;;;3.00;;
66020;SDS011;52789;59.980;30.346;2022-09-17T05:22:23;4.37;;;3.67;;
66020;SDS011;52789;59.980;30.346;2022-09-17T05:24:49;6.50;;;3.70;;
66020;SDS011;52789;59.980;30.346;2022-09-17T05:27:14;7.33;;;4.40;;
66020;SDS011;52789;59.980;30.346;2022-09-17T05:29:40;9.37;;;7.33;;
66020;SDS011;52789;59.980;30.346;2022-09-17T05:32:05;4.03;;;3.10;;
66020;SDS011;52789;59.980;30.346;2022-09-17T05:34:31;6.33;;;3.97;;
66020;SDS011;52789;59.980;30.346;2022-09-17T05:36:57;7.40;;;4.00;;
66020;SDS011;52789;59.980;30.346;2022-09-17T05:39:23;7.07;;;3.97;;
66020;SDS011;52789;59.980;30.346;2022-09-17T05:41:52;5.07;;;3.53;;
66020;SDS011;52789;59.980;30.346;2022-09-17T05:44:18;3.47;;;3.17;;
66020;SDS011;52789;59.980;30.346;2022-09-17T05:46:44;7.23;;;3.83;;
66020;SDS011;52789;59.980;30.346;2022-09-17T05:49:11;6.63;;;3.97;;
66020;SDS011;52789;59.980;30.346;2022-09-17T05:51:36;3.90;;;3.40;;
66020;SDS011;52789;59.980;30.346;2022-09-17T05:54:02;3.50;;;3.20;;
66020;SDS011;52789;59.980;30.346;2022-09-17T05:56:28;7.10;;;3.30;;
66020;SDS011;52789;59.980;30.346;2022-09-17T05:58:54;4.47;;;3.33;;
66020;SDS011;52789;59.980;30.346;2022-09-17T06:01:21;5.00;;;3.23;;
66020;SDS011;52789;59.980;30.346;2022-09-17T06:03:46;6.43;;;3.33;;
66020;SDS011;52789;59.980;30.346;2022-09-17T06:06:12;4.17;;;3.17;;
66020;SDS011;52789;59.980;30.346;2022-09-17T06:08:42;4.28;;;3.15;;
66020;SDS011;52789;59.980;30.346;2022-09-17T06:11:08;3.08;;;2.78;;
66020;SDS011;52789;59.980;30.346;2022-09-17T06:13:34;3.93;;;3.00;;
66020;SDS011;52789;59.980;30.346;2022-09-17T06:16:00;6.60;;;2.80;;
66020;SDS011;52789;59.980;30.346;2022-09-17T06:18:27;3.97;;;2.50;;
66020;SDS011;52789;59.980;30.346;2022-09-17T06:20:57;6.63;;;3.00;;
66020;SDS011;52789;59.980;30.346;2022-09-17T06:23:24;3.00;;;2.50;;
66020;SDS011;52789;59.980;30.346;2022-09-17T06:25:51;5.10;;;2.43;;
66020;SDS011;52789;59.980;30.346;2022-09-17T06:28:18;5.28;;;2.72;;
66020;SDS011;52789;59.980;30.346;2022-09-17T06:30:44;3.90;;;2.77;;
66020;SDS011;52789;59.980;30.346;2022-09-17T06:33:12;7.60;;;2.80;;
66020;SDS011;52789;59.980;30.346;2022-09-17T06:35:38;7.85;;;3.80;;
66020;SDS011;52789;59.980;30.346;2022-09-17T06:38:04;3.53;;;2.50;;
66020;SDS011;52789;59.980;30.346;2022-09-17T06:40:29;6.53;;;3.43;;
66020;SDS011;52789;59.980;30.346;2022-09-17T06:42:56;4.83;;;2.90;;
66020;SDS011;52789;59.980;30.346;2022-09-17T06:45:23;6.22;;;3.88;;
66020;SDS011;52789;59.980;30.346;2022-09-17T06:47:48;5.53;;;3.67;;
66020;SDS011;52789;59.980;30.346;2022-09-17T06:50:14;4.43;;;3.27;;
66020;SDS011;52789;59.980;30.346;2022-09-17T06:52:46;4.57;;;3.30;;
66020;SDS011;52789;59.980;30.346;2022-09-17T06:55:14;7.20;;;3.70;;
66020;SDS011;52789;59.980;30.346;2022-09-17T07:01:18;5.97;;;3.38;;
66020;SDS011;52789;59.980;30.346;2022-09-17T07:03:43;6.33;;;3.40;;
66020;SDS011;52789;59.980;30.346;2022-09-17T07:06:09;5.60;;;3.73;;
66020;SDS011;52789;59.980;30.346;2022-09-17T07:08:35;6.23;;;3.50;;
66020;SDS011;52789;59.980;30.346;2022-09-17T07:11:04;5.50;;;3.27;;
66020;SDS011;52789;59.980;30.346;2022-09-17T07:13:30;6.07;;;3.53;;
66020;SDS011;52789;59.980;30.346;2022-09-17T07:16:00;4.03;;;3.20;;
66020;SDS011;52789;59.980;30.346;2022-09-17T07:18:28;5.93;;;3.30;;
66020;SDS011;52789;59.980;30.346;2022-09-17T07:23:24;4.73;;;3.43;;
66020;SDS011;52789;59.980;30.346;2022-09-17T07:25:55;6.72;;;2.88;;
66020;SDS011;52789;59.980;30.346;2022-09-17T07:28:44;4.33;;;3.47;;
66020;SDS011;52789;59.980;30.346;2022-09-17T07:35:40;5.20;;;3.47;;
66020;SDS011;52789;59.980;30.346;2022-09-17T07:44:59;7.57;;;3.17;;
66020;SDS011;52789;59.980;30.346;2022-09-17T07:47:25;7.23;;;3.70;;
66020;SDS011;52789;59.980;30.346;2022-09-17T07:49:51;6.50;;;3.60;;
66020;SDS011;52789;59.980;30.346;2022-09-17T07:52:16;5.40;;;3.40;;
66020;SDS011;52789;59.980;30.346;2022-09-17T07:54:42;6.17;;;3.17;;
66020;SDS011;52789;59.980;30.346;2022-09-17T07:57:07;6.57;;;3.73;;
66020;SDS011;52789;59.980;30.346;2022-09-17T07:59:33;4.13;;;3.33;;
66020;SDS011;52789;59.980;30.346;2022-09-17T08:01:59;9.73;;;3.10;;
66020;SDS011;52789;59.980;30.346;2022-09-17T08:04:24;4.83;;;3.20;;
66020;SDS011;52789;59.980;30.346;2022-09-17T08:06:50;4.70;;;2.63;;
66020;SDS011;52789;59.980;30.346;2022-09-17T08:09:15;6.23;;;2.33;;
66020;SDS011;52789;59.980;30.346;2022-09-17T08:11:44;9.60;;;2.80;;
66020;SDS011;52789;59.980;30.346;2022-09-17T08:14:10;5.27;;;3.03;;
66020;SDS011;52789;59.980;30.346;2022-09-17T08:16:39;4.17;;;3.07;;
66020;SDS011;52789;59.980;30.346;2022-09-17T08:19:04;2.47;;;2.27;;
66020;SDS011;52789;59.980;30.346;2022-09-17T08:25:05;2.43;;;2.23;;
66020;SDS011;52789;59.980;30.346;2022-09-17T08:31:06;6.60;;;2.63;;
66020;SDS011;52789;59.980;30.346;2022-09-17T08:40:54;3.00;;;2.33;;
66020;SDS011;52789;59.980;30.346;2022-09-17T08:43:22;3.20;;;2.50;;
66020;SDS011;52789;59.980;30.346;2022-09-17T08:45:52;4.83;;;2.57;;
66020;SDS011;52789;59.980;30.346;2022-09-17T08:48:19;3.00;;;2.53;;
66020;SDS011;52789;59.980;30.346;2022-09-17T08:50:45;2.83;;;2.53;;
66020;SDS011;52789;59.980;30.346;2022-09-17T08:56:12;4.70;;;2.77;;
66020;SDS011;52789;59.980;30.346;2022-09-17T09:04:14;4.03;;;2.87;;
66020;SDS011;52789;59.980;30.346;2022-09-17T09:07:19;4.30;;;2.40;;
66020;SDS011;52789;59.980;30.346;2022-09-17T09:10:06;3.47;;;2.10;;
66020;SDS011;52789;59.980;30.346;2022-09-17T09:12:36;4.17;;;3.03;;
66020;SDS011;52789;59.980;30.346;2022-09-17T09:17:50;2.83;;;2.30;;
66020;SDS011;52789;59.980;30.346;2022-09-17T09:20:25;4.27;;;2.10;;
66020;SDS011;52789;59.980;30.346;2022-09-17T09:28:38;2.80;;;2.27;;
66020;SDS011;52789;59.980;30.346;2022-09-17T09:32:01;1.90;;;1.70;;
66020;SDS011;52789;59.980;30.346;2022-09-17T09:34:19;5.83;;;1.70;;
66020;SDS011;52789;59.980;30.346;2022-09-17T09:36:44;2.27;;;2.07;;
66020;SDS011;52789;59.980;30.346;2022-09-17T09:39:17;1.73;;;1.60;;
66020;SDS011;52789;59.980;30.346;2022-09-17T09:41:49;4.63;;;1.90;;
66020;SDS011;52789;59.980;30.346;2022-09-17T09:44:33;5.27;;;1.50;;
66020;SDS011;52789;59.980;30.346;2022-09-17T09:52:50;2.97;;;1.77;;
66020;SDS011;52789;59.980;30.346;2022-09-17T10:01:24;1.97;;;1.33;;
66020;SDS011;52789;59.980;30.346;2022-09-17T10:03:58;1.40;;;1.30;;
66020;SDS011;52789;59.980;30.346;2022-09-17T10:06:23;1.98;;;1.40;;
66020;SDS011;52789;59.980;30.346;2022-09-17T10:22:16;1.50;;;1.37;;
66020;SDS011;52789;59.980;30.346;2022-09-17T10:24:43;2.80;;;1.80;;
66020;SDS011;52789;59.980;30.346;2022-09-17T10:27:12;4.13;;;1.60;;
66020;SDS011;52789;59.980;30.346;2022-09-17T10:29:43;3.80;;;2.00;;
66020;SDS011;52789;59.980;30.346;2022-09-17T10:32:20;2.45;;;1.40;;
66020;SDS011;52789;59.980;30.346;2022-09-17T10:37:55;6.20;;;2.67;;
66020;SDS011;52789;59.980;30.346;2022-09-17T10:40:24;2.83;;;2.00;;
66020;SDS011;52789;59.980;30.346;2022-09-17T10:45:39;4.60;;;2.00;;
66020;SDS011;52789;59.980;30.346;2022-09-17T10:48:15;3.17;;;2.87;;
66020;SDS011;52789;59.980;30.346;2022-09-17T10:50:47;3.38;;;2.08;;
66020;SDS011;52789;59.980;30.346;2022-09-17T10:53:20;4.57;;;2.40;;
66020;SDS011;52789;59.980;30.346;2022-09-17T10:55:54;4.40;;;1.90;;
66020;SDS011;52789;59.980;30.346;2022-09-17T10:58:50;3.13;;;1.93;;
66020;SDS011;52789;59.980;30.346;2022-09-17T11:04:27;6.00;;;2.23;;
66020;SDS011;52789;59.980;30.346;2022-09-17T11:26:28;2.23;;;1.57;;
66020;SDS011;52789;59.980;30.346;2022-09-17T11:35:22;5.23;;;2.07;;
66020;SDS011;52789;59.980;30.346;2022-09-17T11:38:01;4.43;;;1.77;;
66020;SDS011;52789;59.980;30.346;2022-09-17T11:43:04;2.67;;;1.97;;
66020;SDS011;52789;59.980;30.346;2022-09-17T11:45:57;5.63;;;2.03;;
66020;SDS011;52789;59.980;30.346;2022-09-17T11:48:43;3.03;;;2.73;;
66020;SDS011;52789;59.980;30.346;2022-09-17T11:51:22;5.03;;;2.37;;
66020;SDS011;52789;59.980;30.346;2022-09-17T11:54:11;2.20;;;2.00;;
66020;SDS011;52789;59.980;30.346;2022-09-17T11:56:48;4.00;;;2.90;;
66020;SDS011;52789;59.980;30.346;2022-09-17T12:01:55;7.63;;;3.45;;
66020;SDS011;52789;59.980;30.346;2022-09-17T12:07:30;4.28;;;3.10;;
66020;SDS011;52789;59.980;30.346;2022-09-17T12:15:59;3.28;;;2.40;;
66020;SDS011;52789;59.980;30.346;2022-09-17T12:18:50;2.63;;;1.87;;
66020;SDS011;52789;59.980;30.346;2022-09-17T12:21:24;4.33;;;3.27;;
66020;SDS011;52789;59.980;30.346;2022-09-17T12:40:55;7.03;;;3.13;;
66020;SDS011;52789;59.980;30.346;2022-09-17T12:57:02;4.13;;;3.60;;
66020;SDS011;52789;59.980;30.346;2022-09-17T12:59:52;16.95;;;12.07;;
66020;SDS011;52789;59.980;30.346;2022-09-17T13:02:27;4.93;;;2.93;;
66020;SDS011;52789;59.980;30.346;2022-09-17T13:13:30;4.97;;;3.30;;
66020;SDS011;52789;59.980;30.346;2022-09-17T13:18:59;3.15;;;2.83;;
66020;SDS011;52789;59.980;30.346;2022-09-17T13:21:48;4.97;;;3.23;;
66020;SDS011;52789;59.980;30.346;2022-09-17T13:24:22;5.43;;;3.67;;
66020;SDS011;52789;59.980;30.346;2022-09-17T13:26:51;5.77;;;3.60;;
66020;SDS011;52789;59.980;30.346;2022-09-17T13:37:43;3.00;;;2.17;;
66020;SDS011;52789;59.980;30.346;2022-09-17T13:42:47;9.57;;;2.45;;
66020;SDS011;52789;59.980;30.346;2022-09-17T13:45:22;2.77;;;2.57;;
66020;SDS011;52789;59.980;30.346;2022-09-17T13:48:01;6.33;;;2.70;;
66020;SDS011;52789;59.980;30.346;2022-09-17T13:50:31;7.37;;;2.67;;
66020;SDS011;52789;59.980;30.346;2022-09-17T14:05:56;5.20;;;2.83;;
66020;SDS011;52789;59.980;30.346;2022-09-17T14:08:49;4.40;;;2.60;;
66020;SDS011;52789;59.980;30.346;2022-09-17T14:13:48;5.43;;;3.72;;
66020;SDS011;52789;59.980;30.346;2022-09-17T14:16:30;4.07;;;3.40;;
66020;SDS011;52789;59.980;30.346;2022-09-17T14:24:22;6.30;;;3.37;;
66020;SDS011;52789;59.980;30.346;2022-09-17T14:40:48;7.67;;;3.90;;
66020;SDS011;52789;59.980;30.346;2022-09-17T14:45:51;6.72;;;4.03;;
66020;SDS011;52789;59.980;30.346;2022-09-17T14:48:29;6.00;;;3.73;;
66020;SDS011;52789;59.980;30.346;2022-09-17T14:51:17;4.17;;;3.70;;
66020;SDS011;52789;59.980;30.346;2022-09-17T14:53:49;6.10;;;3.73;;
66020;SDS011;52789;59.980;30.346;2022-09-17T14:57:02;8.60;;;3.33;;
66020;SDS011;52789;59.980;30.346;2022-09-17T14:59:56;5.87;;;4.20;;
66020;SDS011;52789;59.980;30.346;2022-09-17T15:02:42;4.33;;;3.53;;
66020;SDS011;52789;59.980;30.346;2022-09-17T15:05:20;6.03;;;3.40;;
66020;SDS011;52789;59.980;30.346;2022-09-17T15:07:48;7.47;;;3.80;;
66020;SDS011;52789;59.980;30.346;2022-09-17T15:13:56;7.33;;;5.27;;
66020;SDS011;52789;59.980;30.346;2022-09-17T15:16:25;7.63;;;4.90;;
66020;SDS011;52789;59.980;30.346;2022-09-17T15:18:58;8.47;;;5.83;;
66020;SDS011;52789;59.980;30.346;2022-09-17T15:25:07;10.73;;;7.37;;
66020;SDS011;52789;59.980;30.346;2022-09-17T15:27:47;9.53;;;6.93;;
66020;SDS011;52789;59.980;30.346;2022-09-17T15:33:02;10.73;;;6.88;;
66020;SDS011;52789;59.980;30.346;2022-09-17T15:37:58;15.83;;;7.37;;
66020;SDS011;52789;59.980;30.346;2022-09-17T15:43:00;10.38;;;7.18;;
66020;SDS011;52789;59.980;30.346;2022-09-17T15:45:30;14.23;;;6.53;;
66020;SDS011;52789;59.980;30.346;2022-09-17T15:48:01;17.13;;;7.83;;
66020;SDS011;52789;59.980;30.346;2022-09-17T15:53:10;12.57;;;6.90;;
66020;SDS011;52789;59.980;30.346;2022-09-17T15:55:39;12.23;;;6.53;;
66020;SDS011;52789;59.980;30.346;2022-09-17T16:01:02;9.50;;;6.20;;
66020;SDS011;52789;59.980;30.346;2022-09-17T16:08:47;14.05;;;6.68;;
66020;SDS011;52789;59.980;30.346;2022-09-17T16:11:18;10.00;;;5.57;;
66020;SDS011;52789;59.980;30.346;2022-09-17T16:13:45;11.93;;;6.07;;
66020;SDS011;52789;59.980;30.346;2022-09-17T16:16:16;10.97;;;7.30;;
66020;SDS011;52789;59.980;30.346;2022-09-17T16:21:35;16.03;;;8.93;;
66020;SDS011;52789;59.980;30.346;2022-09-17T16:24:00;12.97;;;8.10;;
66020;SDS011;52789;59.980;30.346;2022-09-17T16:26:35;16.13;;;8.43;;
66020;SDS011;52789;59.980;30.346;2022-09-17T16:29:04;12.00;;;8.17;;
66020;SDS011;52789;59.980;30.346;2022-09-17T16:31:35;15.67;;;8.20;;
66020;SDS011;52789;59.980;30.346;2022-09-17T16:34:00;18.37;;;7.63;;
66020;SDS011;52789;59.980;30.346;2022-09-17T16:36:26;11.83;;;7.77;;
66020;SDS011;52789;59.980;30.346;2022-09-17T16:38:58;11.87;;;6.47;;
66020;SDS011;52789;59.980;30.346;2022-09-17T16:41:28;8.57;;;5.43;;
66020;SDS011;52789;59.980;30.346;2022-09-17T16:43:53;8.67;;;6.37;;
66020;SDS011;52789;59.980;30.346;2022-09-17T16:46:19;6.73;;;5.23;;
66020;SDS011;52789;59.980;30.346;2022-09-17T16:48:48;8.43;;;5.07;;
66020;SDS011;52789;59.980;30.346;2022-09-17T16:51:14;5.27;;;3.70;;
66020;SDS011;52789;59.980;30.346;2022-09-17T16:53:41;6.43;;;3.70;;
66020;SDS011;52789;59.980;30.346;2022-09-17T16:56:07;4.73;;;3.13;;
66020;SDS011;52789;59.980;30.346;2022-09-17T16:58:34;5.77;;;3.07;;
66020;SDS011;52789;59.980;30.346;2022-09-17T17:01:10;4.50;;;2.97;;
66020;SDS011;52789;59.980;30.346;2022-09-17T17:03:39;4.17;;;3.17;;
66020;SDS011;52789;59.980;30.346;2022-09-17T17:06:17;3.80;;;3.40;;
66020;SDS011;52789;59.980;30.346;2022-09-17T17:08:46;3.23;;;2.90;;
66020;SDS011;52789;59.980;30.346;2022-09-17T17:11:12;4.00;;;3.17;;
66020;SDS011;52789;59.980;30.346;2022-09-17T17:13:40;3.53;;;3.23;;
66020;SDS011;52789;59.980;30.346;2022-09-17T17:16:08;4.38;;;2.63;;
66020;SDS011;52789;59.980;30.346;2022-09-17T17:18:36;3.67;;;2.40;;
66020;SDS011;52789;59.980;30.346;2022-09-17T17:21:05;4.73;;;3.10;;
66020;SDS011;52789;59.980;30.346;2022-09-17T17:23:35;7.77;;;3.03;;
66020;SDS011;52789;59.980;30.346;2022-09-17T17:26:01;5.67;;;3.70;;
66020;SDS011;52789;59.980;30.346;2022-09-17T17:28:30;7.00;;;3.40;;
66020;SDS011;52789;59.980;30.346;2022-09-17T17:30:56;4.13;;;2.67;;
66020;SDS011;52789;59.980;30.346;2022-09-17T17:33:22;4.37;;;3.20;;
66020;SDS011;52789;59.980;30.346;2022-09-17T17:35:53;3.97;;;3.17;;
66020;SDS011;52789;59.980;30.346;2022-09-17T17:38:19;4.93;;;2.73;;
66020;SDS011;52789;59.980;30.346;2022-09-17T17:40:48;4.10;;;3.23;;
66020;SDS011;52789;59.980;30.346;2022-09-17T17:43:16;3.70;;;3.28;;
66020;SDS011;52789;59.980;30.346;2022-09-17T17:45:42;5.10;;;3.27;;
66020;SDS011;52789;59.980;30.346;2022-09-17T17:48:07;4.43;;;3.50;;
66020;SDS011;52789;59.980;30.346;2022-09-17T17:50:32;3.40;;;3.10;;
66020;SDS011;52789;59.980;30.346;2022-09-17T17:52:58;5.57;;;2.80;;
66020;SDS011;52789;59.980;30.346;2022-09-17T17:55:24;4.10;;;3.13;;
66020;SDS011;52789;59.980;30.346;2022-09-17T17:57:54;3.27;;;2.43;;
66020;SDS011;52789;59.980;30.346;2022-09-17T18:00:20;2.90;;;2.60;;
66020;SDS011;52789;59.980;30.346;2022-09-17T18:02:46;3.37;;;3.07;;
66020;SDS011;52789;59.980;30.346;2022-09-17T18:05:14;3.55;;;2.40;;
66020;SDS011;52789;59.980;30.346;2022-09-17T18:07:39;3.40;;;2.37;;
66020;SDS011;52789;59.980;30.346;2022-09-17T18:10:05;3.77;;;3.23;;
66020;SDS011;52789;59.980;30.346;2022-09-17T18:12:31;3.73;;;3.20;;
66020;SDS011;52789;59.980;30.346;2022-09-17T18:14:56;4.70;;;3.27;;
66020;SDS011;52789;59.980;30.346;2022-09-17T18:17:25;18.63;;;14.27;;
66020;SDS011;52789;59.980;30.346;2022-09-17T18:19:53;5.40;;;4.80;;
66020;SDS011;52789;59.980;30.346;2022-09-17T18:22:20;4.87;;;3.20;;
66020;SDS011;52789;59.980;30.346;2022-09-17T18:24:46;3.47;;;3.17;;
66020;SDS011;52789;59.980;30.346;2022-09-17T18:27:11;3.83;;;3.03;;
66020;SDS011;52789;59.980;30.346;2022-09-17T18:35:33;3.33;;;3.03;;
66020;SDS011;52789;59.980;30.346;2022-09-17T18:37:59;6.23;;;3.00;;
66020;SDS011;52789;59.980;30.346;2022-09-17T18:40:30;3.40;;;2.80;;
66020;SDS011;52789;59.980;30.346;2022-09-17T18:42:56;4.93;;;3.37;;
66020;SDS011;52789;59.980;30.346;2022-09-17T18:45:21;5.13;;;3.50;;
66020;SDS011;52789;59.980;30.346;2022-09-17T18:47:47;3.67;;;3.23;;
66020;SDS011;52789;59.980;30.346;2022-09-17T18:50:12;5.70;;;3.37;;
66020;SDS011;52789;59.980;30.346;2022-09-17T18:52:38;5.87;;;3.80;;
66020;SDS011;52789;59.980;30.346;2022-09-17T18:55:04;5.70;;;4.53;;
66020;SDS011;52789;59.980;30.346;2022-09-17T18:57:29;5.73;;;3.67;;
66020;SDS011;52789;59.980;30.346;2022-09-17T18:59:55;5.30;;;3.83;;
66020;SDS011;52789;59.980;30.346;2022-09-17T19:02:22;4.97;;;3.53;;
66020;SDS011;52789;59.980;30.346;2022-09-17T19:04:48;5.20;;;2.73;;
66020;SDS011;52789;59.980;30.346;2022-09-17T19:07:14;5.87;;;2.90;;
66020;SDS011;52789;59.980;30.346;2022-09-17T19:09:39;4.60;;;3.40;;
66020;SDS011;52789;59.980;30.346;2022-09-17T19:12:07;4.15;;;3.15;;
66020;SDS011;52789;59.980;30.346;2022-09-17T19:14:33;5.80;;;4.77;;
66020;SDS011;52789;59.980;30.346;2022-09-17T19:17:01;3.78;;;2.90;;
66020;SDS011;52789;59.980;30.346;2022-09-17T19:19:26;3.53;;;3.20;;
66020;SDS011;52789;59.980;30.346;2022-09-17T19:21:53;4.80;;;3.93;;
66020;SDS011;52789;59.980;30.346;2022-09-17T19:24:19;5.77;;;3.80;;
66020;SDS011;52789;59.980;30.346;2022-09-17T19:26:44;4.90;;;2.97;;
66020;SDS011;52789;59.980;30.346;2022-09-17T19:29:10;4.63;;;3.33;;
66020;SDS011;52789;59.980;30.346;2022-09-17T19:31:36;3.70;;;3.30;;
66020;SDS011;52789;59.980;30.346;2022-09-17T19:34:02;3.83;;;3.00;;
66020;SDS011;52789;59.980;30.346;2022-09-17T19:36:28;5.10;;;3.33;;
66020;SDS011;52789;59.980;30.346;2022-09-17T19:38:53;6.27;;;3.63;;